Time;durP1;ratioP1;P1;durP2;ratioP2;P2;SDS_P1;SDS_P2;PMS_P1;PMS_P2;Temp;Humidity;BMP_temperature;BMP_pressure;BME280_temperature;BME280_humidity;BME280_pressure;Samples;Min_cycle;Max_cycle;Signal;HPM_P1;HPM_P2
2022/09/14 00:01:54;;;;;;;;;;;14.80;95.90;;;;;;5055734;28;19943;-74
2022/09/14 00:04:21;;;;;;;;;;;14.90;95.80;;;;;;5052990;28;19909;-74
2022/09/14 00:06:48;;;;;;;;;;;15.10;95.20;;;;;;5054085;28;19909;-74
2022/09/14 00:09:19;;;;;;;;;;;15.30;94.50;;;;;;5072128;28;20382;-74
2022/09/14 00:11:46;;;;;;;;;;;15.50;92.70;;;;;;5072209;28;19927;-74
2022/09/14 00:14:12;;;;;;;;;;;15.80;92.20;;;;;;5039567;28;20262;-72
2022/09/14 00:16:40;;;;;;;;;;;16.00;92.40;;;;;;5052344;28;19909;-72
2022/09/14 00:19:15;;;;;;;;;;;16.20;92.90;;;;;;5052221;28;19916;-72
2022/09/14 00:21:42;;;;;;;;;;;16.20;93.00;;;;;;5052251;28;19909;-73
2022/09/14 00:24:10;;;;;;;;;;;16.20;92.90;;;;;;5058203;28;19962;-75
2022/09/14 00:26:37;;;;;;;;;;;16.20;92.90;;;;;;5072188;28;19940;-76
2022/09/14 00:29:05;;;;;;;;;;;16.20;92.80;;;;;;5072519;28;19908;-75
2022/09/14 00:31:32;;;;;;;;;;;16.20;92.70;;;;;;5072365;28;19931;-76
2022/09/14 00:34:00;;;;;;;;;;;16.20;92.90;;;;;;5072518;28;19954;-77
2022/09/14 00:36:27;;;;;;;;;;;16.20;93.30;;;;;;5072090;28;19912;-74
2022/09/14 00:38:55;;;;;;;;;;;16.30;92.90;;;;;;5070763;28;19999;-76
2022/09/14 00:41:23;;;;;;;;;;;16.20;92.80;;;;;;5070697;28;19912;-75
2022/09/14 00:43:52;;;;;;;;;;;16.20;92.80;;;;;;5070626;28;19909;-76
2022/09/14 00:46:19;;;;;;;;;;;16.20;92.90;;;;;;5070671;28;19948;-74
2022/09/14 00:48:46;;;;;;;;;;;16.20;92.90;;;;;;5070192;28;19948;-75
2022/09/14 00:51:14;;;;;;;;;;;16.20;92.70;;;;;;5070265;28;20353;-74
2022/09/14 00:53:41;;;;;;;;;;;16.20;92.80;;;;;;5071149;28;19977;-73
2022/09/14 00:56:08;;;;;;;;;;;16.20;93.00;;;;;;5072477;28;20368;-73
2022/09/14 00:58:34;;;;;;;;;;;16.20;93.20;;;;;;5072178;28;19938;-73
2022/09/14 01:01:01;;;;;;;;;;;16.20;93.10;;;;;;5072139;28;19936;-73
2022/09/14 01:03:28;;;;;;;;;;;16.20;92.90;;;;;;5071753;28;19962;-73
2022/09/14 01:06:03;;;;;;;;;;;16.20;92.30;;;;;;5075450;28;19908;-73
2022/09/14 01:08:36;;;;;;;;;;;16.40;92.40;;;;;;5075938;28;19909;-73
2022/09/14 01:11:12;;;;;;;;;;;16.60;92.00;;;;;;5076074;28;19908;-73
2022/09/14 01:13:51;;;;;;;;;;;16.70;91.30;;;;;;5075628;28;20005;-73
2022/09/14 01:16:21;;;;;;;;;;;16.80;91.20;;;;;;5057724;28;19908;-74
2022/09/14 01:18:53;;;;;;;;;;;17.10;90.10;;;;;;5075723;28;20317;-71
2022/09/14 01:21:24;;;;;;;;;;;17.20;88.00;;;;;;5075556;28;19909;-73
2022/09/14 01:23:53;;;;;;;;;;;17.30;87.60;;;;;;5075644;28;19924;-73
2022/09/14 01:26:38;;;;;;;;;;;17.60;87.80;;;;;;5075440;28;20372;-73
2022/09/14 01:29:17;;;;;;;;;;;17.60;88.00;;;;;;5075662;28;20293;-74
2022/09/14 01:31:53;;;;;;;;;;;17.80;86.80;;;;;;5075694;28;19912;-73
2022/09/14 01:34:37;;;;;;;;;;;17.90;85.60;;;;;;5075316;28;20384;-74
2022/09/14 01:37:11;;;;;;;;;;;18.00;83.10;;;;;;5075671;28;20381;-74
2022/09/14 01:40:10;;;;;;;;;;;18.20;85.60;;;;;;5075203;28;19909;-74
2022/09/14 01:42:39;;;;;;;;;;;18.50;85.50;;;;;;5014468;28;19916;-74
2022/09/14 01:45:07;;;;;;;;;;;18.50;84.80;;;;;;5075546;28;19927;-74
2022/09/14 01:47:40;;;;;;;;;;;18.40;85.00;;;;;;5075253;28;20389;-73
2022/09/14 01:50:12;;;;;;;;;;;18.30;85.70;;;;;;5075439;28;19948;-73
2022/09/14 01:52:43;;;;;;;;;;;18.30;86.80;;;;;;5075398;28;20007;-74
2022/09/14 01:55:15;;;;;;;;;;;18.30;87.20;;;;;;5075244;28;19916;-74
2022/09/14 01:57:44;;;;;;;;;;;18.30;86.70;;;;;;5075319;28;19916;-75
2022/09/14 02:00:15;;;;;;;;;;;18.30;86.50;;;;;;5074870;28;19920;-75
2022/09/14 02:03:04;;;;;;;;;;;18.30;86.60;;;;;;5074928;28;19961;-73
2022/09/14 02:05:31;;;;;;;;;;;18.60;87.60;;;;;;5064525;28;19908;-74
2022/09/14 02:07:58;;;;;;;;;;;19.10;86.00;;;;;;5075152;28;19908;-73
2022/09/14 02:10:25;;;;;;;;;;;19.10;86.10;;;;;;5074779;28;19908;-72
2022/09/14 02:12:54;;;;;;;;;;;19.00;84.50;;;;;;5075090;28;20329;-73
2022/09/14 02:15:21;;;;;;;;;;;19.20;86.80;;;;;;5074492;28;20002;-76
2022/09/14 02:17:48;;;;;;;;;;;19.40;83.80;;;;;;5074097;28;19912;-74
2022/09/14 02:20:27;;;;;;;;;;;19.40;83.80;;;;;;5074987;28;19953;-74
2022/09/14 02:22:54;;;;;;;;;;;19.40;82.30;;;;;;5074718;28;20383;-74
2022/09/14 02:25:21;;;;;;;;;;;19.30;83.80;;;;;;5074373;28;19912;-73
2022/09/14 02:27:48;;;;;;;;;;;19.30;85.70;;;;;;5074550;28;19999;-74
2022/09/14 02:30:15;;;;;;;;;;;19.30;84.80;;;;;;5074355;28;20426;-73
2022/09/14 02:32:50;;;;;;;;;;;19.50;84.80;;;;;;5056378;28;20316;-73
2022/09/14 02:35:25;;;;;;;;;;;19.70;85.00;;;;;;5074504;28;19908;-74
2022/09/14 02:38:04;;;;;;;;;;;20.10;83.80;;;;;;5074248;28;19931;-75
2022/09/14 02:40:30;;;;;;;;;;;20.80;81.60;;;;;;5074220;28;19908;-76
2022/09/14 02:43:06;;;;;;;;;;;21.40;81.80;;;;;;5074221;28;19909;-75
2022/09/14 02:45:44;;;;;;;;;;;21.90;79.00;;;;;;5074280;28;19939;-76
2022/09/14 02:48:14;;;;;;;;;;;22.50;77.30;;;;;;5074435;28;20344;-77
2022/09/14 02:50:46;;;;;;;;;;;22.70;76.70;;;;;;5074433;28;19999;-75
2022/09/14 02:53:23;;;;;;;;;;;22.60;76.10;;;;;;5074192;28;19916;-75
2022/09/14 02:56:00;;;;;;;;;;;22.20;78.80;;;;;;5074268;28;19948;-75
2022/09/14 02:58:37;;;;;;;;;;;22.00;77.00;;;;;;5056376;28;19912;-75
2022/09/14 03:01:05;;;;;;;;;;;21.70;79.00;;;;;;5074024;28;19962;-75
2022/09/14 03:03:32;;;;;;;;;;;21.50;78.70;;;;;;5073999;28;19958;-76
2022/09/14 03:05:58;;;;;;;;;;;21.10;79.50;;;;;;5074186;28;19954;-75
2022/09/14 03:08:26;;;;;;;;;;;20.70;80.30;;;;;;5073836;28;20013;-74
2022/09/14 03:10:52;;;;;;;;;;;20.20;81.10;;;;;;5074040;28;19909;-75
2022/09/14 03:13:19;;;;;;;;;;;20.00;81.70;;;;;;5073912;28;19962;-74
2022/09/14 03:15:46;;;;;;;;;;;19.60;82.70;;;;;;5073916;28;20280;-74
2022/09/14 03:18:13;;;;;;;;;;;19.50;82.40;;;;;;5073685;28;19916;-74
2022/09/14 03:20:39;;;;;;;;;;;19.50;82.20;;;;;;5073984;28;19909;-75
2022/09/14 03:23:07;;;;;;;;;;;19.40;81.60;;;;;;5073682;28;19909;-75
2022/09/14 03:25:38;;;;;;;;;;;19.20;82.40;;;;;;5073697;28;19931;-75
2022/09/14 03:28:05;;;;;;;;;;;19.90;82.10;;;;;;5072941;28;19963;-76
2022/09/14 03:30:32;;;;;;;;;;;21.10;78.70;;;;;;5073540;28;19908;-76
2022/09/14 03:32:59;;;;;;;;;;;21.60;77.00;;;;;;5073349;28;19916;-75
2022/09/14 03:35:29;;;;;;;;;;;21.50;76.10;;;;;;5073530;28;19909;-77
2022/09/14 03:37:56;;;;;;;;;;;21.10;77.70;;;;;;5073582;28;20311;-75
2022/09/14 03:40:23;;;;;;;;;;;20.60;78.30;;;;;;5073330;28;20273;-76
2022/09/14 03:42:50;;;;;;;;;;;20.20;77.40;;;;;;5073325;28;19908;-76
2022/09/14 03:45:17;;;;;;;;;;;20.00;78.60;;;;;;5073454;28;19915;-76
2022/09/14 03:47:45;;;;;;;;;;;20.70;77.40;;;;;;5073486;28;19909;-76
2022/09/14 03:50:12;;;;;;;;;;;21.90;75.20;;;;;;5073093;28;19948;-78
2022/09/14 03:52:39;;;;;;;;;;;23.20;74.50;;;;;;5072798;28;19979;-77
2022/09/14 03:55:06;;;;;;;;;;;23.20;72.20;;;;;;5073121;28;20043;-76
2022/09/14 03:57:33;;;;;;;;;;;23.30;72.10;;;;;;5073334;28;19909;-73
2022/09/14 04:00:00;;;;;;;;;;;23.10;72.20;;;;;;5073312;28;19927;-78
2022/09/14 04:02:28;;;;;;;;;;;23.70;70.10;;;;;;5073093;28;19919;-77
2022/09/14 04:04:55;;;;;;;;;;;24.30;67.80;;;;;;5073190;28;19908;-77
2022/09/14 04:07:21;;;;;;;;;;;24.80;66.50;;;;;;5072850;28;19912;-77
2022/09/14 04:09:48;;;;;;;;;;;25.10;66.20;;;;;;5073326;28;20270;-76
2022/09/14 04:12:15;;;;;;;;;;;25.40;65.30;;;;;;5073079;28;20023;-79
2022/09/14 04:14:41;;;;;;;;;;;24.70;66.30;;;;;;5072906;28;20030;-77
2022/09/14 04:17:08;;;;;;;;;;;23.90;65.70;;;;;;5072706;28;20445;-74
2022/09/14 04:19:37;;;;;;;;;;;23.80;68.60;;;;;;5072796;28;19908;-70
2022/09/14 04:22:04;;;;;;;;;;;24.00;65.70;;;;;;5072919;28;20371;-74
2022/09/14 04:24:30;;;;;;;;;;;24.30;65.90;;;;;;5054889;28;19908;-75
2022/09/14 04:26:57;;;;;;;;;;;25.10;64.20;;;;;;5072625;28;19959;-76
2022/09/14 04:29:24;;;;;;;;;;;25.60;64.50;;;;;;5072556;28;19947;-79
2022/09/14 04:31:50;;;;;;;;;;;26.20;62.70;;;;;;5072328;28;20011;-74
2022/09/14 04:34:17;;;;;;;;;;;25.50;64.60;;;;;;5072553;28;19962;-73
2022/09/14 04:36:43;;;;;;;;;;;25.80;63.10;;;;;;5054654;28;19909;-74
2022/09/14 04:39:12;;;;;;;;;;;25.70;63.70;;;;;;5071669;28;19994;-72
2022/09/14 04:41:39;;;;;;;;;;;26.30;63.20;;;;;;5072356;28;20353;-73
2022/09/14 04:44:08;;;;;;;;;;;26.20;62.90;;;;;;5072458;28;19909;-78
2022/09/14 04:46:40;;;;;;;;;;;26.30;61.90;;;;;;5072136;28;19909;-75
2022/09/14 04:49:07;;;;;;;;;;;26.50;61.70;;;;;;5072349;28;20352;-73
2022/09/14 04:51:34;;;;;;;;;;;26.70;61.00;;;;;;5072711;28;19909;-77
2022/09/14 04:54:01;;;;;;;;;;;26.60;61.20;;;;;;5072334;28;20008;-71
2022/09/14 04:56:29;;;;;;;;;;;26.50;60.00;;;;;;5072835;28;20365;-73
2022/09/14 04:59:03;;;;;;;;;;;26.50;60.80;;;;;;5071965;28;19916;-75
2022/09/14 05:01:31;;;;;;;;;;;25.90;61.70;;;;;;5072292;28;19908;-77
2022/09/14 05:03:58;;;;;;;;;;;26.70;60.60;;;;;;5072027;28;20365;-76
2022/09/14 05:06:28;;;;;;;;;;;27.10;60.70;;;;;;5072358;28;19916;-74
2022/09/14 05:08:55;;;;;;;;;;;26.80;60.00;;;;;;5072153;28;19909;-75
2022/09/14 05:11:23;;;;;;;;;;;26.70;60.90;;;;;;5072404;28;20006;-77
2022/09/14 05:13:50;;;;;;;;;;;26.00;60.40;;;;;;5072308;28;19920;-76
2022/09/14 05:16:16;;;;;;;;;;;26.10;61.70;;;;;;5072124;28;19944;-79
2022/09/14 05:18:43;;;;;;;;;;;26.80;60.70;;;;;;5072000;28;19958;-75
2022/09/14 05:21:10;;;;;;;;;;;26.40;60.70;;;;;;5071099;28;19924;-74
2022/09/14 05:23:38;;;;;;;;;;;26.80;61.70;;;;;;5071084;28;19973;-77
2022/09/14 05:26:05;;;;;;;;;;;26.30;61.90;;;;;;5071472;28;19909;-77
2022/09/14 05:28:33;;;;;;;;;;;26.50;60.80;;;;;;5048241;28;19913;-74
2022/09/14 05:31:06;;;;;;;;;;;26.60;59.90;;;;;;5069740;28;20245;-73
2022/09/14 05:33:34;;;;;;;;;;;25.60;60.30;;;;;;5065355;28;19916;-79
2022/09/14 05:36:01;;;;;;;;;;;25.40;60.70;;;;;;5053095;28;19919;-73
2022/09/14 05:38:29;;;;;;;;;;;25.70;61.40;;;;;;5071278;28;19912;-75
2022/09/14 05:40:55;;;;;;;;;;;25.50;60.70;;;;;;5071420;28;19904;-76
2022/09/14 05:43:22;;;;;;;;;;;25.20;61.20;;;;;;5070373;28;19912;-78
2022/09/14 05:45:51;;;;;;;;;;;24.80;59.20;;;;;;5071285;28;19915;-75
2022/09/14 05:48:21;;;;;;;;;;;24.90;60.00;;;;;;5071267;28;19908;-74
2022/09/14 05:50:48;;;;;;;;;;;25.00;60.30;;;;;;5072398;28;19908;-74
2022/09/14 05:53:14;;;;;;;;;;;26.00;61.30;;;;;;5074701;28;19943;-76
2022/09/14 05:55:41;;;;;;;;;;;26.90;57.90;;;;;;5074421;28;19954;-75
2022/09/14 05:58:10;;;;;;;;;;;27.10;57.60;;;;;;5074433;28;19909;-75
2022/09/14 06:00:38;;;;;;;;;;;26.90;58.80;;;;;;5039726;28;19939;-73
2022/09/14 06:03:06;;;;;;;;;;;27.00;59.00;;;;;;5073936;28;19908;-72
2022/09/14 06:05:34;;;;;;;;;;;26.60;59.20;;;;;;5074271;28;20246;-73
2022/09/14 06:08:04;;;;;;;;;;;26.20;60.40;;;;;;5074186;28;19935;-81
2022/09/14 06:10:33;;;;;;;;;;;26.10;60.70;;;;;;5055140;28;20400;-76
2022/09/14 06:12:59;;;;;;;;;;;26.30;60.80;;;;;;5065597;28;19920;-78
2022/09/14 06:15:27;;;;;;;;;;;26.10;61.10;;;;;;5070269;28;19916;-81
2022/09/14 06:17:54;;;;;;;;;;;26.10;60.30;;;;;;5068560;28;19912;-76
2022/09/14 06:20:22;;;;;;;;;;;25.50;61.70;;;;;;5071672;28;19991;-78
2022/09/14 06:22:49;;;;;;;;;;;25.40;62.80;;;;;;5070992;28;19919;-75
2022/09/14 06:25:16;;;;;;;;;;;25.60;63.70;;;;;;5073130;28;19982;-80
2022/09/14 06:27:43;;;;;;;;;;;25.20;63.50;;;;;;5073288;28;19909;-78
2022/09/14 06:30:10;;;;;;;;;;;24.80;64.30;;;;;;5073083;28;19955;-78
2022/09/14 06:32:36;;;;;;;;;;;24.70;64.90;;;;;;5073693;28;19920;-73
2022/09/14 06:35:03;;;;;;;;;;;24.80;64.40;;;;;;5071496;28;19931;-85
2022/09/14 06:37:30;;;;;;;;;;;25.10;63.90;;;;;;5072105;28;20273;-81
2022/09/14 06:39:56;;;;;;;;;;;25.30;63.80;;;;;;5072365;28;19908;-76
2022/09/14 06:42:23;;;;;;;;;;;25.00;63.60;;;;;;5065723;28;19912;-77
2022/09/14 06:44:50;;;;;;;;;;;25.00;64.30;;;;;;5070210;28;19912;-87
2022/09/14 06:47:16;;;;;;;;;;;24.60;65.20;;;;;;5073137;28;20046;-80
2022/09/14 06:49:43;;;;;;;;;;;24.20;65.30;;;;;;5068072;28;19999;-79
2022/09/14 06:52:09;;;;;;;;;;;23.40;67.10;;;;;;5072540;28;19919;-86
2022/09/14 06:54:36;;;;;;;;;;;22.20;69.20;;;;;;5073293;28;20357;-87
2022/09/14 06:57:03;;;;;;;;;;;21.40;71.60;;;;;;5074459;28;19916;-83
2022/09/14 06:59:29;;;;;;;;;;;20.70;74.00;;;;;;5073359;28;19943;-78
2022/09/14 07:01:56;;;;;;;;;;;20.20;76.10;;;;;;5070477;28;19913;-75
2022/09/14 07:04:23;;;;;;;;;;;19.80;77.40;;;;;;5069506;28;19958;-77
2022/09/14 07:06:50;;;;;;;;;;;19.30;78.90;;;;;;5071450;28;19909;-79
2022/09/14 07:09:18;;;;;;;;;;;19.20;79.80;;;;;;5072364;28;19912;-79
2022/09/14 07:11:45;;;;;;;;;;;18.90;80.70;;;;;;5071290;28;20289;-78
2022/09/14 07:14:11;;;;;;;;;;;18.60;81.30;;;;;;5071209;28;19923;-78
2022/09/14 07:16:39;;;;;;;;;;;18.50;83.00;;;;;;5071872;28;19912;-72
2022/09/14 07:19:07;;;;;;;;;;;18.30;83.00;;;;;;5071571;28;19952;-76
2022/09/14 07:21:34;;;;;;;;;;;18.10;84.50;;;;;;5071839;28;19966;-80
2022/09/14 07:24:01;;;;;;;;;;;17.90;84.50;;;;;;5069243;28;19922;-78
2022/09/14 07:26:29;;;;;;;;;;;17.80;85.40;;;;;;5070440;28;19940;-79
2022/09/14 07:29:00;;;;;;;;;;;17.70;85.60;;;;;;5071452;28;19918;-81
2022/09/14 07:31:29;;;;;;;;;;;17.50;86.10;;;;;;5072135;28;20280;-79
2022/09/14 07:33:58;;;;;;;;;;;17.40;86.70;;;;;;5071218;28;20316;-81
2022/09/14 07:36:26;;;;;;;;;;;17.30;87.40;;;;;;5071098;28;19909;-76
2022/09/14 07:38:53;;;;;;;;;;;17.30;88.00;;;;;;5071151;28;19919;-77
2022/09/14 07:41:24;;;;;;;;;;;17.10;87.90;;;;;;5071386;28;20487;-81
2022/09/14 07:43:51;;;;;;;;;;;17.00;88.70;;;;;;5070677;28;19985;-81
2022/09/14 07:46:19;;;;;;;;;;;16.90;90.00;;;;;;5071272;28;19940;-76
2022/09/14 07:48:45;;;;;;;;;;;17.00;90.10;;;;;;5070932;28;19956;-76
2022/09/14 07:51:13;;;;;;;;;;;16.90;90.30;;;;;;5070757;28;19942;-77
2022/09/14 07:53:43;;;;;;;;;;;16.80;90.40;;;;;;5071235;28;20042;-76
2022/09/14 07:56:10;;;;;;;;;;;16.70;90.70;;;;;;5070502;28;19909;-75
2022/09/14 07:58:37;;;;;;;;;;;16.70;91.00;;;;;;5076032;28;20003;-76
2022/09/14 08:01:07;;;;;;;;;;;16.60;91.10;;;;;;5070129;28;19955;-75
2022/09/14 08:03:35;;;;;;;;;;;16.60;91.30;;;;;;5070676;28;20388;-75
2022/09/14 08:06:04;;;;;;;;;;;16.60;91.40;;;;;;5070868;28;19919;-74
2022/09/14 08:08:32;;;;;;;;;;;16.40;91.60;;;;;;5071668;28;19909;-74
2022/09/14 08:11:12;;;;;;;;;;;16.30;92.00;;;;;;5071913;28;19905;-76
2022/09/14 08:13:40;;;;;;;;;;;16.20;92.20;;;;;;5071150;28;20424;-79
2022/09/14 08:16:07;;;;;;;;;;;16.10;92.50;;;;;;5071869;28;19915;-77
2022/09/14 08:18:34;;;;;;;;;;;16.10;92.50;;;;;;5062270;28;19967;-74
2022/09/14 08:21:08;;;;;;;;;;;16.10;92.70;;;;;;5062142;28;20365;-73
2022/09/14 08:23:35;;;;;;;;;;;16.00;92.70;;;;;;5063103;28;19913;-77
2022/09/14 08:26:06;;;;;;;;;;;16.00;92.90;;;;;;5059989;28;20057;-75
2022/09/14 08:28:32;;;;;;;;;;;15.90;93.00;;;;;;5064468;28;19912;-77
2022/09/14 08:31:07;;;;;;;;;;;15.90;93.30;;;;;;5060296;28;19945;-80
2022/09/14 08:33:35;;;;;;;;;;;15.80;93.40;;;;;;5061184;28;19928;-77
2022/09/14 08:36:02;;;;;;;;;;;15.80;93.50;;;;;;5061776;28;20391;-77
2022/09/14 08:38:29;;;;;;;;;;;15.80;93.50;;;;;;5060770;28;19946;-76
2022/09/14 08:40:56;;;;;;;;;;;15.80;93.20;;;;;;5060534;28;19962;-79
2022/09/14 08:43:24;;;;;;;;;;;15.80;93.20;;;;;;5062467;28;19921;-79
2022/09/14 08:45:54;;;;;;;;;;;15.70;93.10;;;;;;5059524;28;19917;-80
2022/09/14 08:48:30;;;;;;;;;;;15.80;93.20;;;;;;5059748;28;19973;-75
2022/09/14 08:50:57;;;;;;;;;;;15.70;92.90;;;;;;5063632;28;19974;-75
2022/09/14 08:53:24;;;;;;;;;;;15.80;92.80;;;;;;5059221;28;19917;-75
2022/09/14 08:55:53;;;;;;;;;;;15.70;92.60;;;;;;5045110;28;19913;-74
2022/09/14 08:58:32;;;;;;;;;;;15.70;92.70;;;;;;5060059;28;19913;-73
2022/09/14 09:00:59;;;;;;;;;;;15.70;92.70;;;;;;5063695;28;20019;-73
2022/09/14 09:03:32;;;;;;;;;;;15.70;92.40;;;;;;5062665;28;19908;-73
2022/09/14 09:06:01;;;;;;;;;;;15.60;92.30;;;;;;5063094;28;19940;-73
2022/09/14 09:08:37;;;;;;;;;;;15.70;92.50;;;;;;5051000;28;20681;-74
2022/09/14 09:11:07;;;;;;;;;;;15.70;92.30;;;;;;5070653;28;19970;-76
2022/09/14 09:13:34;;;;;;;;;;;15.70;92.40;;;;;;5071244;28;19924;-74
2022/09/14 09:16:06;;;;;;;;;;;15.60;92.50;;;;;;5071634;28;20011;-73
2022/09/14 09:18:40;;;;;;;;;;;15.60;92.80;;;;;;5071343;28;19916;-74
2022/09/14 09:21:15;;;;;;;;;;;15.60;92.60;;;;;;5059843;28;20012;-73
2022/09/14 09:23:42;;;;;;;;;;;15.60;92.40;;;;;;5066872;28;19920;-73
2022/09/14 09:26:09;;;;;;;;;;;15.60;92.40;;;;;;5052910;28;19909;-72
2022/09/14 09:28:40;;;;;;;;;;;15.50;92.70;;;;;;5055172;28;20276;-71
2022/09/14 09:31:07;;;;;;;;;;;15.60;92.50;;;;;;5074657;28;19912;-71
2022/09/14 09:33:33;;;;;;;;;;;15.50;92.60;;;;;;5075191;28;19917;-73
2022/09/14 09:36:00;;;;;;;;;;;15.50;92.70;;;;;;5075145;28;19908;-73
2022/09/14 09:38:28;;;;;;;;;;;15.50;92.90;;;;;;5074939;28;19912;-74
2022/09/14 09:40:57;;;;;;;;;;;15.40;93.00;;;;;;5068243;28;19945;-75
2022/09/14 09:43:24;;;;;;;;;;;15.40;93.10;;;;;;5072758;28;19955;-77
2022/09/14 09:45:51;;;;;;;;;;;15.40;93.00;;;;;;5074023;28;20398;-75
2022/09/14 09:48:19;;;;;;;;;;;15.40;93.20;;;;;;5074028;28;20384;-78
2022/09/14 09:50:49;;;;;;;;;;;15.40;93.20;;;;;;5074176;28;19908;-76
2022/09/14 09:53:18;;;;;;;;;;;15.40;93.60;;;;;;5072794;28;19943;-75
2022/09/14 09:55:49;;;;;;;;;;;15.40;93.30;;;;;;5073423;28;19916;-75
2022/09/14 09:58:22;;;;;;;;;;;15.50;93.30;;;;;;5071519;28;19986;-72
2022/09/14 10:00:55;;;;;;;;;;;15.40;93.30;;;;;;5073366;28;20011;-74
2022/09/14 10:03:30;;;;;;;;;;;15.40;93.40;;;;;;5073227;28;20401;-74
2022/09/14 10:06:02;;;;;;;;;;;15.40;93.50;;;;;;5073873;28;19919;-75
2022/09/14 10:08:33;;;;;;;;;;;15.30;93.50;;;;;;5072754;28;20031;-74
2022/09/14 10:11:01;;;;;;;;;;;15.40;93.60;;;;;;5064170;28;20287;-77
2022/09/14 10:13:30;;;;;;;;;;;15.30;93.40;;;;;;5068091;28;19956;-74
2022/09/14 10:16:15;;;;;;;;;;;15.30;93.50;;;;;;5066411;28;20262;-75
2022/09/14 10:18:45;;;;;;;;;;;15.30;93.50;;;;;;5067312;28;19920;-76
2022/09/14 10:21:13;;;;;;;;;;;15.30;93.60;;;;;;5070032;28;19912;-78
2022/09/14 10:23:40;;;;;;;;;;;15.30;93.80;;;;;;5059963;28;19909;-72
2022/09/14 10:26:25;;;;;;;;;;;15.30;93.80;;;;;;5073234;28;19919;-75
2022/09/14 10:28:52;;;;;;;;;;;15.30;93.80;;;;;;5067325;28;19924;-72
2022/09/14 10:31:29;;;;;;;;;;;15.20;94.00;;;;;;5071712;28;19966;-72
2022/09/14 10:33:57;;;;;;;;;;;15.20;94.20;;;;;;5055602;28;19920;-73
2022/09/14 10:36:30;;;;;;;;;;;15.20;94.10;;;;;;5072527;28;19913;-74
2022/09/14 10:39:06;;;;;;;;;;;15.20;94.20;;;;;;5072357;28;19955;-73
2022/09/14 10:41:44;;;;;;;;;;;15.20;94.30;;;;;;5073572;28;19915;-74
2022/09/14 10:44:22;;;;;;;;;;;15.10;94.30;;;;;;5064232;28;20381;-76
2022/09/14 10:46:49;;;;;;;;;;;15.10;94.30;;;;;;5068434;28;19913;-73
2022/09/14 10:49:28;;;;;;;;;;;15.10;94.40;;;;;;5067038;28;19999;-77
2022/09/14 10:51:54;;;;;;;;;;;15.10;94.50;;;;;;5073031;28;19908;-74
2022/09/14 10:54:21;;;;;;;;;;;15.10;94.50;;;;;;5072386;28;19912;-74
2022/09/14 10:56:50;;;;;;;;;;;15.10;94.50;;;;;;5072861;28;19919;-74
2022/09/14 10:59:23;;;;;;;;;;;15.10;94.60;;;;;;5071543;28;19916;-74
2022/09/14 11:01:56;;;;;;;;;;;15.20;94.60;;;;;;5052974;28;19913;-75
2022/09/14 11:04:41;;;;;;;;;;;15.10;94.60;;;;;;5066280;28;20003;-74
2022/09/14 11:07:17;;;;;;;;;;;15.10;94.60;;;;;;5072633;28;19974;-76
2022/09/14 11:10:10;;;;;;;;;;;15.10;94.60;;;;;;5072757;28;20419;-72
2022/09/14 11:12:54;;;;;;;;;;;15.10;94.70;;;;;;5066565;28;19959;-73
2022/09/14 11:15:26;;;;;;;;;;;15.10;95.00;;;;;;5069539;28;19909;-75
2022/09/14 11:18:08;;;;;;;;;;;15.10;94.80;;;;;;5054791;28;19918;-75
2022/09/14 11:20:57;;;;;;;;;;;15.00;95.00;;;;;;5061797;28;20660;-77
2022/09/14 11:23:37;;;;;;;;;;;15.00;95.00;;;;;;5072586;28;19915;-76
2022/09/14 11:26:13;;;;;;;;;;;15.00;94.90;;;;;;5065575;28;19912;-78
2022/09/14 11:28:42;;;;;;;;;;;15.00;95.00;;;;;;5063011;28;19912;-72
2022/09/14 11:31:27;;;;;;;;;;;15.00;95.00;;;;;;5063496;28;19955;-78
2022/09/14 11:34:03;;;;;;;;;;;15.00;95.10;;;;;;5067112;28;19931;-73
2022/09/14 11:36:34;;;;;;;;;;;14.90;95.10;;;;;;5072295;28;19952;-74
2022/09/14 11:39:20;;;;;;;;;;;14.90;95.40;;;;;;5061161;28;19919;-73
2022/09/14 11:41:59;;;;;;;;;;;14.90;95.40;;;;;;5059529;28;20383;-78
2022/09/14 11:44:39;;;;;;;;;;;14.80;95.40;;;;;;5070866;28;19999;-74
2022/09/14 11:47:06;;;;;;;;;;;14.80;95.60;;;;;;5063428;28;20007;-74
2022/09/14 11:49:51;;;;;;;;;;;14.80;95.70;;;;;;5054115;28;19915;-75
2022/09/14 11:52:24;;;;;;;;;;;14.80;95.80;;;;;;5062379;28;19923;-78
2022/09/14 11:54:51;;;;;;;;;;;14.80;96.00;;;;;;5066533;28;19935;-74
2022/09/14 11:57:19;;;;;;;;;;;14.70;95.90;;;;;;5059599;28;19912;-73
2022/09/14 11:59:49;;;;;;;;;;;14.60;96.30;;;;;;5061797;28;19927;-80
2022/09/14 12:02:25;;;;;;;;;;;14.60;96.40;;;;;;5063340;28;19924;-77
2022/09/14 12:05:04;;;;;;;;;;;14.50;96.50;;;;;;5065867;28;19920;-73
2022/09/14 12:07:44;;;;;;;;;;;14.50;96.70;;;;;;5071955;28;19912;-72
2022/09/14 12:10:14;;;;;;;;;;;14.50;96.90;;;;;;5060057;28;19939;-79
2022/09/14 12:12:40;;;;;;;;;;;14.40;96.90;;;;;;5056637;28;19999;-79
2022/09/14 12:15:25;;;;;;;;;;;14.30;97.20;;;;;;5062816;28;19920;-78
2022/09/14 12:17:52;;;;;;;;;;;14.30;97.30;;;;;;5061049;28;20348;-73
2022/09/14 12:20:31;;;;;;;;;;;14.20;97.40;;;;;;5060524;28;19919;-72
2022/09/14 12:23:15;;;;;;;;;;;14.20;97.70;;;;;;5062494;28;19927;-80
2022/09/14 12:26:00;;;;;;;;;;;14.20;97.80;;;;;;5061605;28;19909;-79
2022/09/14 12:28:27;;;;;;;;;;;14.20;98.00;;;;;;5062730;28;20003;-76
2022/09/14 12:30:53;;;;;;;;;;;14.10;98.20;;;;;;5056546;28;19916;-75
2022/09/14 12:33:32;;;;;;;;;;;14.00;98.20;;;;;;5057104;28;19925;-74
2022/09/14 12:36:00;;;;;;;;;;;14.00;98.40;;;;;;5062435;28;19909;-72
2022/09/14 12:38:29;;;;;;;;;;;14.00;98.50;;;;;;5059179;28;19919;-74
2022/09/14 12:40:56;;;;;;;;;;;14.00;98.60;;;;;;5060691;28;19931;-75
2022/09/14 12:43:34;;;;;;;;;;;13.90;98.80;;;;;;5060999;28;19960;-77
2022/09/14 12:46:07;;;;;;;;;;;13.90;98.80;;;;;;5061212;28;19912;-74
2022/09/14 12:48:53;;;;;;;;;;;13.80;99.10;;;;;;5061232;28;19991;-73
2022/09/14 12:51:31;;;;;;;;;;;13.70;99.20;;;;;;5061051;28;19999;-74
2022/09/14 12:53:59;;;;;;;;;;;13.80;99.40;;;;;;5060628;28;19947;-74
2022/09/14 12:56:43;;;;;;;;;;;13.70;99.50;;;;;;5062005;28;19974;-72
2022/09/14 12:59:28;;;;;;;;;;;13.70;99.80;;;;;;5062414;28;19960;-76
2022/09/14 13:01:54;;;;;;;;;;;13.70;99.80;;;;;;5054318;28;19909;-73
2022/09/14 13:04:28;;;;;;;;;;;13.70;99.90;;;;;;5068503;28;19934;-73
2022/09/14 13:06:56;;;;;;;;;;;13.60;99.90;;;;;;5075480;28;20426;-73
2022/09/14 13:09:27;;;;;;;;;;;13.60;99.90;;;;;;5075306;28;19908;-78
2022/09/14 13:12:09;;;;;;;;;;;13.60;99.90;;;;;;5075455;28;20459;-73
2022/09/14 13:14:48;;;;;;;;;;;13.60;99.90;;;;;;5074701;28;19965;-78
2022/09/14 13:17:15;;;;;;;;;;;13.60;99.90;;;;;;5074957;28;19913;-72
2022/09/14 13:19:42;;;;;;;;;;;13.50;99.90;;;;;;5075086;28;19915;-74
2022/09/14 13:22:18;;;;;;;;;;;13.40;99.90;;;;;;5075180;28;20053;-77
2022/09/14 13:24:46;;;;;;;;;;;13.40;99.90;;;;;;5053003;28;19913;-76
2022/09/14 13:27:27;;;;;;;;;;;13.30;99.90;;;;;;5054689;28;19909;-75
2022/09/14 13:30:03;;;;;;;;;;;13.30;99.90;;;;;;5054702;28;20262;-74
2022/09/14 13:32:29;;;;;;;;;;;13.30;99.90;;;;;;5072277;28;19946;-73
2022/09/14 13:34:56;;;;;;;;;;;13.30;99.90;;;;;;5074128;28;19913;-77
2022/09/14 13:37:23;;;;;;;;;;;13.20;99.90;;;;;;5075458;28;19996;-75
2022/09/14 13:39:54;;;;;;;;;;;13.20;99.90;;;;;;5075090;28;20288;-75
2022/09/14 13:42:21;;;;;;;;;;;13.20;99.90;;;;;;5075005;28;19916;-76
2022/09/14 13:44:49;;;;;;;;;;;13.20;99.90;;;;;;5074378;28;20014;-73
2022/09/14 13:47:19;;;;;;;;;;;13.10;99.90;;;;;;5074750;28;19912;-76
2022/09/14 13:49:46;;;;;;;;;;;13.10;99.90;;;;;;5075047;28;19915;-79
2022/09/14 13:52:22;;;;;;;;;;;13.10;99.90;;;;;;5074630;28;19956;-80
2022/09/14 13:54:49;;;;;;;;;;;13.10;99.90;;;;;;5074209;28;19916;-78
2022/09/14 13:57:16;;;;;;;;;;;13.10;99.90;;;;;;5074363;28;20019;-75
2022/09/14 14:00:00;;;;;;;;;;;13.10;99.90;;;;;;5074295;28;20027;-74
2022/09/14 14:02:27;;;;;;;;;;;13.10;99.90;;;;;;5073825;28;19966;-73
2022/09/14 14:04:54;;;;;;;;;;;13.20;99.90;;;;;;5073626;28;20377;-74
2022/09/14 14:07:31;;;;;;;;;;;13.10;99.90;;;;;;5074401;28;19990;-74
2022/09/14 14:09:58;;;;;;;;;;;13.20;99.90;;;;;;5074345;28;19908;-74
2022/09/14 14:12:35;;;;;;;;;;;13.10;99.90;;;;;;5056303;28;20280;-73
2022/09/14 14:15:05;;;;;;;;;;;13.20;99.90;;;;;;5066178;28;19916;-79
2022/09/14 14:17:34;;;;;;;;;;;13.20;99.90;;;;;;5074325;28;20376;-77
2022/09/14 14:20:21;;;;;;;;;;;13.30;99.90;;;;;;5074226;28;19958;-78
2022/09/14 14:23:18;;;;;;;;;;;13.20;99.90;;;;;;5066575;28;19920;-77
2022/09/14 14:25:46;;;;;;;;;;;13.30;99.90;;;;;;5047595;28;19920;-77
2022/09/14 14:28:18;;;;;;;;;;;13.30;99.90;;;;;;5072839;28;19908;-80
2022/09/14 14:30:45;;;;;;;;;;;13.40;99.90;;;;;;5055871;28;20276;-78
2022/09/14 14:33:13;;;;;;;;;;;13.40;99.90;;;;;;5073804;28;19921;-77
2022/09/14 14:35:40;;;;;;;;;;;13.50;99.90;;;;;;5073793;28;19908;-78